Rance - Challenge JP Guerit

Le jogging du calvaire à Rance (8.20 km)

Classement complet

Le classement original se trouve sur : http://www.challenge-guerit.be/
 
CHALLENGE JP GUERIT
LE JOGGING DU CALVAIRE - RANCE
DISTANCE 8.20 km
samedi 15 juillet 2017
 
place
finish
dos NOM Equipe Catég. Place
catégorie
temps temps/km Vitesse
1 158 HAUTIER GUILLAUME JACO SEN H 1 0:29:24 03:35 16.73
2 92 LEBLANC RENAUD JACO SEN H 2 0:29:46 03:38 16.53
3 86 DETAILLE MANUEL CSCV HIRSON V1 1 0:30:30 03:43 16.13
4 66 TOUZEAU JEAN-PIERRE JACO V1 2 0:31:37 03:51 15.56
5 33 VAN LERBERGHE ALEXIS JACO SEN H 3 0:32:06 03:55 15.33
6 171 COPPIN ALAN   SEN H 4 0:32:38 03:59 15.08
7 69 HARDY MICHAËL LA THURE V1 3 0:32:51 04:00 14.98
8 43 BADOT BENOIT JOG HERMETON SEN H 5 0:33:03 04:02 14.89
9 28 VAN GHELUWE REMI JACO SEN H 6 0:33:05 04:02 14.87
10 147 TROUILLEZ LAURENT   V2 1 0:33:06 04:02 14.86
11 71 DE PESTEL BLAISE JACO SEN H 7 0:33:18 04:04 14.77
12 42 DUCARME NICOLAS   SEN H 8 0:33:36 04:06 14.64
13 119 GROENNE ELIAN LA THURE xxx   0:33:38 04:06 14.63
14 106 HENNIAUX QUENTIN   JUH 1 0:33:49 04:07 14.55
15 197 VISÉE FLORIAN   SEN H 9 0:33:59 04:09 14.48
16 96 DETRE TOBBIAS   SEN H 10 0:34:04 04:09 14.44
17 157 HAUTIER THIBAUT GUILLOUX SEN H 11 0:34:08 04:10 14.41
18 1 DRAUX CORENTIN LA THURE SEN H 12 0:34:33 04:13 14.24
19 75 ROGGE STEPHANE FAIREBEL V1 4 0:34:56 04:16 14.08
20 6 BRUNEBARBE JOËL LA THURE V1 5 0:35:18 04:18 13.94
21 38 WILMART SÉBASTIEN JACO SEN H 13 0:35:27 04:19 13.88
22 19 FICHET LAURENT JACO V1 6 0:35:38 04:21 13.81
23 121 GREGOIRE JEAN-FRANÇOIS   SEN H 14 0:35:39 04:21 13.80
24 17 GUIOT FABRICE LA THURE V1 7 0:35:46 04:22 13.76
25 169 VAN LERBERGHE SIMON SHARKS TRIATHLON CHIMAY SEN H 15 0:35:48 04:22 13.74
26 109 JACQUES JERRY JTRR SEN H 16 0:35:50 04:22 13.73
27 73 MAUDOUX LIONEL JACO SEN H 17 0:35:56 04:23 13.69
28 128 CLINET JEAN-PHILIPPE   V1 8 0:35:58 04:23 13.68
29 7 DUBOIS SÉBASTIEN LA THURE V1 9 0:36:01 04:24 13.66
30 120 BOREUX DAMIEN JACO SEN H 18 0:36:08 04:24 13.62
31 22 DI CATALDO MICHEL GOSSELIES SPORT V2 2 0:36:18 04:26 13.55
32 105 CHARLIER DAMIEN   SEN H 19 0:36:34 04:28 13.45
33 180 HAEGEMAN REMY   SEN H 20 0:36:44 04:29 13.39
34 190 DEGEY BENOIT SHARKS TRIATHLON CHIMAY SEN H 21 0:36:48 04:29 13.37
35 127 AMANT BERTRAND LA THURE SEN H 22 0:36:52 04:30 13.35
36 194 BIERWISCH EDOUARD #TOUSMAUREEN xxx   0:37:15 04:33 13.21
37 98 RIFFLART MATHIEU JTRR SEN H 23 0:37:21 04:33 13.17
38 153 MICHAUX STÉPHANE LA THURE V1 10 0:37:27 04:34 13.14
39 126 BRICE JEAN-MARIE   V2 3 0:37:33 04:35 13.10
40 138 PUISSANT SIMON CHIMAY TRAIL AVENTURE SEN H 24 0:37:45 04:36 13.03
41 51 LENOIR ANDY TRAILER DES FAGNES SEN H 25 0:37:56 04:38 12.97
42 134 ES CHRISTIAN AC FRONTIERES V2 4 0:37:59 04:38 12.95
43 12 DEVILLE PHILIPPE JTRR V3 1 0:38:04 04:39 12.92
44 146 POUCET QUENTIN   SEN H 26 0:38:09 04:39 12.90
45 168 FICHET DOMINIQUE JACO V1 11 0:38:11 04:39 12.89
46 61 GUILLAUME SÉBASTIEN JACO-SHARKS TRI SEN H 27 0:38:22 04:41 12.82
47 48 GUILLAUME YVES JACO V2 5 0:38:23 04:41 12.82
48 111 HUART OLIVIER LA THURE V1 12 0:38:25 04:41 12.81
49 188 DUTERME MICHEL   V2 6 0:38:34 04:42 12.76
50 101 GALLUCCIO ANTONIO OTS RUNNEUR V3 2 0:38:43 04:43 12.71
51 149 COULON RUDDY CLERMONTOISE V2 7 0:38:50 04:44 12.67
52 54 LEJEUNE PHILIPPE JACO V2 8 0:38:55 04:45 12.64
53 163 MARCHAL LUC   V2 9 0:39:06 04:46 12.58
54 76 THOMAS PAUL BARRIERE V3 3 0:39:09 04:46 12.57
55 81 RIVEZ NICOLAS STRATOS RUNNING SEN H 28 0:39:11 04:47 12.56
56 151 LAMERANT CHANTAL OXYGÈNE A2 1 0:39:17 04:47 12.52
57 183 CORDEWENER PATRICE AC FRONTIERES V2 10 0:39:19 04:48 12.51
58 139 FALISE VALENTIN   SEN H 29 0:39:27 04:49 12.47
59 10 BUTEL LOÏC STRATOS RUNNING SEN H 30 0:39:31 04:49 12.45
60 178 DEGEZELLE STÉPHANE CAMBRAI TRIATH V2 11 0:39:35 04:50 12.43
61 21 DELESPINETTE SÉBASTIEN LA THURE SEN H 31 0:39:37 04:50 12.42
62 104 BOUILLET NICOLAS LA THURE SEN H 32 0:39:41 04:50 12.40
63 116 CLIP JEAN-LOUIS   SEN H 33 0:39:50 04:51 12.35
64 173 CAUET THIBAUT   SEN H 34 0:39:50 04:51 12.35
65 40 DECLERCQ GUY   V2 12 0:39:54 04:52 12.33
66 148 HABETS AUGUSTIN AC FRONTIERES V4 1 0:39:56 04:52 12.32
67 636 DECLERCQ FRANÇOIS ZATAC V1 13 0:39:59 04:53 12.31
68 24 AUBERT SERGE CHUDONDORGANES V3 4 0:40:30 04:56 12.15
69 160 MAURENNE FRANÇOIS USV86 V1 14 0:40:34 04:57 12.13
70 52 LEGROS JACQUES LA THURE V3 5 0:40:38 04:57 12.11
71 72 DE PESTEL HERVÉ JACO V2 13 0:40:45 04:58 12.07
72 67 PONCELET JOSÉ AC FRONTIERES V4 2 0:41:07 05:01 11.97
73 31 BASTIEN FRÉDÉRIC QUALITY ASSISTANCE V1 15 0:41:16 05:02 11.92
74 152 RENAUD BENJAMIN   SEN H 35 0:41:21 05:03 11.90
75 57 PARISELLE JACKY AC FRONTIERES V3 6 0:41:25 05:03 11.88
76 133 LEBON MICHAËL JCHSH V1 16 0:41:30 05:04 11.86
77 136 PRAIL CHRISTIAN ZONARD THUIN-LOBBES V4 3 0:41:41 05:05 11.80
78 46 LOBET LUDIVINE SHARKS GRANNY SEN F 1 0:41:53 05:06 11.75
79 80 LESCEUX JOSÉ JACO V1 17 0:42:17 05:09 11.64
80 145 BIOT ALEX JTRR V2 14 0:42:29 05:11 11.58
81 29 LECHIEN CHRISTIAN QUALITY ASSISTANCE V1 18 0:42:34 05:11 11.56
82 77 FOSTY FRANCETTE BARRIERE A3 1 0:43:13 05:16 11.38
83 79 BEDORET VINCENT CLERMONT VALGAU V2 15 0:43:57 05:22 11.19
84 140 DELHOYE JÉRÔME   SEN H 36 0:43:59 05:22 11.19
85 154 POROLI MAXIME   SEN H 37 0:44:02 05:22 11.17
86 161 GARDIN HÉLÈNE   A2 2 0:44:08 05:23 11.15
87 144 LEROI PHILIPPE SNCF V2 16 0:44:19 05:24 11.10
88 117 DETAILLE VIRGINIE   A1 1 0:44:20 05:24 11.10
89 118 MARONET BRUNO   V1 19 0:44:22 05:25 11.09
90 164 SEMSAR MADJID   V2 17 0:44:26 05:25 11.07
91 192 BIERWISCH JEAN-MICHEL #TOUSMAUREEN V1 20 0:44:39 05:27 11.02
92 53 HERAUT VÉRONIQUE JOGG HERMETTON A2 3 0:44:45 05:27 10.99
93 123 LEMAIRE OLIVIER2 JCPMF V1 21 0:44:55 05:29 10.95
94 130 BRICE FRANÇOIS   SEN H 38 0:45:20 05:32 10.85
95 131 BRICE AMANDINE   SEN F 2 0:45:22 05:32 10.84
96 142 COLLET CHRISTELLE JACO A1 2 0:45:26 05:32 10.83
97 74 BEGAUX JEAN JTRR V3 7 0:45:28 05:33 10.82
98 170 GUILLAUME JEAN-JACQUES JCPMC V3 8 0:45:37 05:34 10.79
99 132 POIRION OLIVIER JCHSH SEN H 39 0:45:39 05:34 10.78
100 193 BINON CHRISTEL #TOUSMAUREEN A1 3 0:45:42 05:34 10.77
101 49 COLLART MARCELLE   A1 4 0:45:49 05:35 10.74
102 112 LAVERDURE MARINE   SEN F 3 0:45:57 05:36 10.71
103 150 STICKER JOHAN OXYGENE V2 18 0:46:31 05:40 10.58
104 70 PERSINET ARNAUD CSCV HIRSON SEN H 40 0:46:51 05:43 10.50
105 124 LAFFINEUR KÉVIN LA THURE SEN H 41 0:46:52 05:43 10.50
106 15 WIAME ANNE FAIREBEL A1 5 0:47:00 05:44 10.47
107 27 MEULEMEESTER PATRICK JACO V2 19 0:47:15 05:46 10.41
108 172 DUPUIS ESTHÈLE   SEN F 4 0:47:42 05:49 10.31
109 174 FRANSSENS JACQUES ESM V3 9 0:47:48 05:50 10.29
110 141 GANY PASCALE JACO A2 4 0:48:08 05:52 10.22
111 177 BERNARD LIONEL   SEN H 42 0:48:33 05:55 10.13
112 137 LEFOUR FLORENCE JACO A2 5 0:49:04 05:59 10.03
113 165 REZIG DIAB   V2 20 0:49:05 05:59 10.02
114 114 GUEZOU PIERRE ESA 59 xxx   0:49:10 06:00 10.01
115 162 GARDIN CLÉMENCE   xxx   0:49:22 06:01 9.97
116 94 GILLE DANIEL SHARKS JTRR V3 10 0:49:25 06:02 9.96
117 93 PIRE NATHALIE JTRR-SHARKS A2 6 0:49:59 06:06 9.84
118 176 BERNARD VINCENT LA THURE V2 21 0:50:07 06:07 9.82
119 175 BIRON SAMUEL   SEN H 43 0:50:08 06:07 9.81
120 191 MOLITOR YOLÈNE   SEN F 5 0:51:17 06:15 9.59
121 125 STEENS EMIEL ESTINNES V3 11 0:51:31 06:17 9.55
122 159 GILLE ALIZÉE USV 86 SEN F 6 0:51:44 06:19 9.51
123 198 COLLIN SÉVERINE RSCA A1 6 0:51:45 06:19 9.51
124 47 GASQUET VALÉRIE LA THURE A3 2 0:52:01 06:21 9.46
125 143 PESTIAUX YVES LA THURE V4 4 0:52:03 06:21 9.45
126 182 TENRET VIRGINIE   A1 7 0:52:14 06:22 9.42
127 122 HENNERESSE ISABELLE JOGGANS A2 7 0:52:23 06:23 9.39
128 135 DANIEL CHRISTIANE HAC A4 1 0:52:29 06:24 9.37
129 129 HANOTEAUX RAYMOND LA THURE V4 5 0:52:49 06:26 9.32
130 156 BOUILLET ELODIE   A1 8 0:52:54 06:27 9.30
131 113 BAUWENS CÉLINE ESA 59 A2 8 0:53:13 06:29 9.25
132 110 ELIS AUDREY   A1 9 0:53:34 06:32 9.18
133 85 GILQUART CHANTAL LA THURE A4 2 0:54:01 06:35 9.11
134 166 BAUDUIN VIRGINIE   SEN F 7 0:55:26 06:46 8.88
135 167 BAUDUIN ANNE-SOPHIE   SEN F 8 0:55:28 06:46 8.87
136 196 LECOHIER DIDIER   V2 22 0:55:55 06:49 8.80
137 200 DAIX CHRISTIANE JCPMF COUVIN A2 9 0:57:32 07:01 8.55
138 103 DEMAIN PATRICK LA THURE V2 23 0:57:35 07:01 8.54
139 189 LAMBERT MARIE-VIRGINIE SHARKS TRIATHLON CHIMAY SEN F 9 0:58:12 07:06 8.45
140 184 STALON VINCENT BPC SEN H 44 0:58:15 07:06 8.45
141 185 FILLOT PIERRE BPC V1 22 0:58:17 07:06 8.44
142 199 STREEL MICHELINE CLERMONTOISE A2 10 0:58:58 07:11 8.34
143 155 QUENON SYLVIE   A3 3 0:59:33 07:16 8.26
144 651 TULLI PAOLA JCF A2 11 1:00:17 07:21 8.16
145 102 SOWULA JEAN CPMV V4 6 1:03:52 07:47 7.70
146 39 TORFS CHRISTINE LA THURE A4 3 1:05:47 08:01 7.48